createdAt,value
2019-02-05T00:00:31.142Z,14.60
2019-02-05T00:03:01.451Z,13.40
2019-02-05T00:05:32.432Z,14.70
2019-02-05T00:08:02.973Z,14.30
2019-02-05T00:10:33.237Z,13.60
2019-02-05T00:13:04.093Z,15.90
2019-02-05T00:15:34.728Z,14.20
2019-02-05T00:18:06.280Z,15.10
2019-02-05T00:20:37.422Z,15.03
2019-02-05T00:23:07.738Z,16.17
2019-02-05T00:25:38.042Z,15.90
2019-02-05T00:28:08.632Z,15.07
2019-02-05T00:30:39.233Z,14.67
2019-02-05T00:33:09.828Z,15.90
2019-02-05T00:35:40.054Z,14.80
2019-02-05T00:38:10.377Z,14.13
2019-02-05T00:40:40.701Z,15.57
2019-02-05T00:43:10.887Z,15.07
2019-02-05T00:45:41.490Z,15.47
2019-02-05T00:48:12.122Z,14.93
2019-02-05T00:50:43.446Z,15.97
2019-02-05T00:53:14.038Z,15.03
2019-02-05T00:55:45.522Z,14.10
2019-02-05T00:58:16.010Z,15.77
2019-02-05T01:00:46.877Z,15.40
2019-02-05T01:03:17.106Z,15.23
2019-02-05T01:05:49.208Z,14.60
2019-02-05T01:08:19.948Z,15.77
2019-02-05T01:10:50.223Z,14.60
2019-02-05T01:13:20.455Z,15.17
2019-02-05T01:15:50.679Z,14.83
2019-02-05T01:18:21.410Z,15.53
2019-02-05T01:20:52.386Z,15.17
2019-02-05T01:23:22.665Z,16.07
2019-02-05T01:25:52.967Z,15.23
2019-02-05T01:28:24.586Z,15.40
2019-02-05T01:30:54.908Z,16.57
2019-02-05T01:33:25.093Z,16.10
2019-02-05T01:35:55.320Z,16.82
2019-02-05T01:38:26.605Z,16.00
2019-02-05T01:40:57.192Z,15.30
2019-02-05T01:43:27.524Z,15.60
2019-02-05T01:45:57.988Z,15.70
2019-02-05T01:48:28.595Z,15.90
2019-02-05T01:50:59.248Z,16.07
2019-02-05T01:53:29.566Z,16.37
2019-02-05T01:56:00.094Z,16.10
2019-02-05T01:58:30.623Z,15.87
2019-02-05T02:01:01.166Z,15.73
2019-02-05T02:03:32.217Z,15.78
2019-02-05T02:06:02.462Z,15.50
2019-02-05T02:08:33.469Z,16.77
2019-02-05T02:11:04.193Z,16.20
2019-02-05T02:13:34.834Z,16.10
2019-02-05T02:16:05.674Z,16.33
2019-02-05T02:18:36.330Z,18.30
2019-02-05T02:21:06.881Z,16.37
2019-02-05T02:23:37.464Z,17.63
2019-02-05T02:26:08.105Z,17.10
2019-02-05T02:28:38.412Z,17.63
2019-02-05T02:31:08.672Z,16.43
2019-02-05T02:33:39.039Z,17.43
2019-02-05T02:36:09.224Z,18.13
2019-02-05T02:38:40.134Z,17.30
2019-02-05T02:41:11.311Z,17.47
2019-02-05T02:43:41.678Z,17.20
2019-02-05T02:46:11.964Z,18.10
2019-02-05T02:48:42.557Z,17.37
2019-02-05T02:51:13.084Z,18.00
2019-02-05T02:53:43.734Z,17.47
2019-02-05T02:56:14.386Z,16.93
2019-02-05T02:58:45.512Z,15.97
2019-02-05T03:01:16.129Z,16.17
2019-02-05T03:03:46.769Z,17.20
2019-02-05T03:06:17.017Z,17.00
2019-02-05T03:08:47.617Z,16.57
2019-02-05T03:11:18.171Z,15.47
2019-02-05T03:13:48.662Z,15.43
2019-02-05T03:19:36.628Z,17.13
2019-02-05T03:22:07.163Z,16.90
2019-02-05T03:24:37.479Z,16.47
2019-02-05T03:27:17.141Z,16.83
2019-02-05T03:29:41.111Z,16.37
2019-02-05T03:32:11.583Z,17.03
2019-02-05T03:34:41.856Z,16.97
2019-02-05T03:37:12.217Z,17.60
2019-02-05T03:39:43.122Z,16.20
2019-02-05T03:42:13.323Z,16.43
2019-02-05T03:44:43.872Z,16.42
2019-02-05T03:47:14.979Z,16.40
2019-02-05T03:49:45.330Z,16.03
2019-02-05T03:52:47.001Z,16.20
2019-02-05T03:55:44.801Z,15.67
2019-02-05T03:58:59.777Z,16.60
2019-02-05T04:02:14.741Z,17.03
2019-02-05T04:05:25.972Z,17.20
2019-02-05T04:08:37.589Z,17.30
2019-02-05T04:11:53.818Z,16.60
2019-02-05T04:14:54.665Z,16.20
2019-02-05T04:18:03.045Z,17.40
2019-02-05T04:21:30.117Z,17.87
2019-02-05T04:24:23.327Z,18.23
2019-02-05T04:27:47.622Z,17.77
2019-02-05T04:30:53.466Z,17.33
2019-02-05T04:33:49.716Z,17.03
2019-02-05T04:37:04.668Z,17.87
2019-02-05T04:40:06.273Z,17.47
2019-02-05T04:42:54.171Z,17.53
2019-02-05T04:46:00.873Z,16.50
2019-02-05T04:49:11.316Z,17.60
2019-02-05T04:51:54.022Z,18.07
2019-02-05T04:54:51.237Z,18.90
2019-02-05T04:57:57.081Z,18.57
2019-02-05T05:00:54.031Z,18.60
2019-02-05T05:04:02.411Z,19.63
2019-02-05T05:07:16.665Z,20.43
2019-02-05T05:09:57.880Z,19.73
2019-02-05T05:12:29.792Z,17.97
2019-02-05T05:15:00.512Z,19.67
2019-02-05T05:17:30.809Z,17.47
2019-02-05T05:20:01.333Z,18.27
2019-02-05T05:22:31.826Z,18.67
2019-02-05T05:25:02.687Z,19.67
2019-02-05T05:27:33.330Z,18.37
2019-02-05T05:30:05.485Z,16.93
2019-02-05T05:32:35.744Z,17.37
2019-02-05T05:35:07.851Z,19.20
2019-02-05T05:37:38.350Z,16.60
2019-02-05T05:40:09.413Z,18.00
2019-02-05T05:42:39.994Z,18.47
2019-02-05T05:45:13.593Z,16.63
2019-02-05T05:47:44.224Z,19.00
2019-02-05T05:50:16.121Z,16.40
2019-02-05T05:52:46.714Z,17.50
2019-02-05T05:55:17.081Z,16.80
2019-02-05T05:57:47.669Z,17.47
2019-02-05T06:00:19.638Z,18.10
2019-02-05T06:02:51.558Z,18.30
2019-02-05T06:05:21.753Z,17.73
2019-02-05T06:07:52.682Z,18.90
2019-02-05T06:10:22.920Z,19.37
2019-02-05T06:12:53.508Z,17.43
2019-02-05T06:15:23.766Z,19.47
2019-02-05T06:17:54.071Z,19.03
2019-02-05T06:20:24.607Z,17.37
2019-02-05T06:22:55.211Z,31.47
2019-02-05T06:25:25.981Z,19.00
2019-02-05T06:27:56.194Z,16.83
2019-02-05T06:30:26.887Z,17.53
2019-02-05T06:32:57.130Z,17.77
2019-02-05T06:35:27.853Z,17.07
2019-02-05T06:37:58.387Z,16.63
2019-02-05T06:40:29.126Z,15.70
2019-02-05T06:42:59.651Z,16.73
2019-02-05T06:45:29.932Z,17.23
2019-02-05T06:48:00.206Z,17.10
2019-02-05T06:50:30.460Z,16.93
2019-02-05T06:53:00.748Z,16.67
2019-02-05T06:55:31.006Z,17.50
2019-02-05T06:58:01.617Z,17.63
2019-02-05T07:00:32.486Z,16.07
2019-02-05T07:03:02.689Z,17.83
2019-02-05T07:05:33.126Z,17.67
2019-02-05T07:08:03.458Z,17.30
2019-02-05T07:10:34.258Z,17.63
2019-02-05T07:13:04.882Z,17.57
2019-02-05T07:15:35.746Z,18.40
2019-02-05T07:18:06.462Z,17.63
2019-02-05T07:20:37.762Z,17.23
2019-02-05T07:23:08.194Z,18.20
2019-02-05T07:25:38.764Z,18.87
2019-02-05T07:28:09.347Z,19.23
2019-02-05T07:30:40.149Z,18.90
2019-02-05T07:33:10.627Z,18.70
2019-02-05T07:35:41.127Z,17.90
2019-02-05T07:38:11.464Z,17.70
2019-02-05T07:40:42.047Z,18.02
2019-02-05T07:43:19.138Z,18.40
2019-02-05T07:45:49.770Z,17.23
2019-02-05T07:48:20.704Z,17.97
2019-02-05T07:50:52.057Z,17.67
2019-02-05T07:53:22.397Z,18.07
2019-02-05T07:55:53.007Z,16.07
2019-02-05T07:58:23.718Z,18.03
2019-02-05T08:00:54.324Z,17.60
2019-02-05T08:03:25.008Z,18.43
2019-02-05T08:05:55.940Z,20.20
2019-02-05T08:08:26.765Z,19.80
2019-02-05T08:10:57.051Z,19.80
2019-02-05T08:13:27.351Z,19.07
2019-02-05T08:15:57.606Z,18.07
2019-02-05T08:18:28.179Z,18.93
2019-02-05T08:20:58.362Z,21.00
2019-02-05T08:23:29.060Z,23.03
2019-02-05T08:25:59.422Z,22.67
2019-02-05T08:28:40.388Z,20.30
2019-02-05T08:31:01.622Z,18.20
2019-02-05T08:33:32.588Z,16.67
2019-02-05T08:36:03.291Z,18.53
2019-02-05T08:38:34.206Z,18.40
2019-02-05T08:41:05.186Z,17.87
2019-02-05T08:43:35.757Z,17.90
2019-02-05T08:46:06.308Z,17.30
2019-02-05T08:48:36.962Z,17.63
2019-02-05T08:51:07.698Z,16.87
2019-02-05T08:53:38.115Z,16.73
2019-02-05T08:56:08.352Z,17.60
2019-02-05T08:58:38.577Z,17.03
2019-02-05T09:01:14.365Z,15.17
2019-02-05T09:03:43.981Z,16.40
2019-02-05T09:06:14.798Z,15.20
2019-02-05T09:08:45.047Z,16.20
2019-02-05T09:11:15.307Z,17.53
2019-02-05T09:13:45.887Z,15.57
2019-02-05T09:16:16.905Z,15.90
2019-02-05T09:18:47.440Z,15.90
2019-02-05T09:21:18.371Z,17.20
2019-02-05T09:23:48.881Z,18.23
2019-02-05T09:26:19.567Z,17.23
2019-02-05T09:28:52.469Z,17.33
2019-02-05T09:31:22.031Z,16.67
2019-02-05T09:33:52.345Z,16.63
2019-02-05T09:36:23.605Z,17.33
2019-02-05T09:38:54.653Z,18.43
2019-02-05T09:41:25.712Z,17.77
2019-02-05T09:43:56.321Z,19.13
2019-02-05T09:46:26.968Z,17.67
2019-02-05T09:48:57.894Z,17.10
2019-02-05T09:51:28.233Z,18.20
2019-02-05T09:53:58.862Z,16.90
2019-02-05T09:56:29.789Z,16.90
2019-02-05T09:59:00.607Z,17.80
2019-02-05T10:01:31.182Z,17.27
2019-02-05T10:04:03.935Z,15.03
2019-02-05T10:06:34.297Z,17.10
2019-02-05T10:09:06.978Z,16.63
2019-02-05T10:11:37.570Z,14.93
2019-02-05T10:14:08.396Z,14.80
2019-02-05T10:16:38.777Z,14.20
2019-02-05T10:19:09.351Z,14.20
2019-02-05T10:21:40.203Z,12.73
2019-02-05T10:24:10.477Z,12.83
2019-02-05T10:26:40.859Z,12.37
2019-02-05T10:29:11.176Z,11.07
2019-02-05T10:31:42.446Z,12.33
2019-02-05T10:34:13.038Z,11.03
2019-02-05T10:36:43.270Z,8.50
2019-02-05T10:39:14.709Z,6.97
2019-02-05T10:41:44.932Z,8.10
2019-02-05T10:44:15.144Z,7.53
2019-02-05T10:46:45.410Z,6.87
2019-02-05T10:49:16.086Z,6.78
2019-02-05T10:51:46.687Z,6.97
2019-02-05T10:54:16.937Z,7.33
2019-02-05T10:56:47.225Z,7.87
2019-02-05T10:59:17.485Z,12.50
2019-02-05T11:01:48.237Z,13.17
2019-02-05T11:04:19.367Z,13.37
2019-02-05T11:06:50.044Z,13.47
2019-02-05T11:09:20.799Z,13.47
2019-02-05T11:11:51.396Z,14.90
2019-02-05T11:14:22.571Z,15.17
2019-02-05T11:16:53.082Z,14.83
2019-02-05T11:19:23.909Z,14.77
2019-02-05T11:21:54.144Z,16.00
2019-02-05T11:24:25.477Z,15.57
2019-02-05T11:26:56.439Z,16.43
2019-02-05T11:29:26.768Z,16.80
2019-02-05T11:31:57.111Z,14.67
2019-02-05T11:34:27.360Z,14.80
2019-02-05T11:36:58.751Z,14.10
2019-02-05T11:39:30.006Z,13.27
2019-02-05T11:42:00.644Z,7.70
2019-02-05T11:44:31.384Z,8.48
2019-02-05T11:47:03.895Z,8.08
2019-02-05T11:49:34.478Z,7.08
2019-02-05T11:52:05.533Z,8.98
2019-02-05T11:54:36.563Z,7.40
2019-02-05T11:57:06.872Z,8.63
2019-02-05T11:59:38.582Z,7.42
2019-02-05T12:02:10.643Z,8.55
2019-02-05T12:04:44.824Z,8.80
2019-02-05T12:07:15.740Z,9.95
2019-02-05T12:09:46.121Z,11.43
2019-02-05T12:12:16.412Z,9.35
2019-02-05T12:14:50.226Z,8.68
2019-02-05T12:17:19.724Z,9.75
2019-02-05T12:19:50.723Z,8.53
2019-02-05T12:22:21.598Z,10.45
2019-02-05T12:24:51.863Z,10.65
2019-02-05T12:27:22.109Z,10.77
2019-02-05T12:29:52.958Z,10.50
2019-02-05T12:32:23.436Z,9.03
2019-02-05T12:34:53.797Z,11.25
2019-02-05T12:37:24.474Z,10.08
2019-02-05T12:39:55.339Z,8.53
2019-02-05T12:42:26.261Z,11.97
2019-02-05T12:44:57.216Z,9.00
2019-02-05T12:47:27.660Z,9.75
2019-02-05T12:49:57.876Z,9.83
2019-02-05T12:52:30.015Z,10.60
2019-02-05T12:55:12.752Z,8.90
2019-02-05T12:57:35.129Z,9.63
2019-02-05T13:00:12.410Z,10.35
2019-02-05T13:02:42.974Z,9.60
2019-02-05T13:05:13.675Z,9.43
2019-02-05T13:07:44.242Z,10.85
2019-02-05T13:10:16.757Z,11.33
2019-02-05T13:12:47.149Z,9.70
2019-02-05T13:15:17.560Z,10.38
2019-02-05T13:17:48.254Z,10.18
2019-02-05T13:20:21.724Z,9.33
2019-02-05T13:22:52.334Z,8.55
2019-02-05T13:25:24.689Z,8.80
2019-02-05T13:27:55.064Z,8.23
2019-02-05T13:30:27.838Z,8.80
2019-02-05T13:32:58.261Z,8.78
2019-02-05T13:35:29.011Z,8.53
2019-02-05T13:37:59.907Z,7.53
2019-02-05T13:40:30.847Z,8.15
2019-02-05T13:43:01.265Z,7.62
2019-02-05T13:45:33.766Z,6.65
2019-02-05T13:48:05.403Z,8.20
2019-02-05T13:50:36.667Z,8.23
2019-02-05T13:53:07.513Z,8.30
2019-02-05T13:55:40.692Z,9.08
2019-02-05T13:58:11.686Z,9.13
2019-02-05T14:00:50.852Z,8.25
2019-02-05T14:03:21.334Z,9.03
2019-02-05T14:05:51.674Z,7.92
2019-02-05T14:08:21.944Z,9.40
2019-02-05T14:10:52.393Z,8.83
2019-02-05T14:13:22.942Z,8.75
2019-02-05T14:15:54.069Z,9.20
2019-02-05T14:18:25.562Z,9.10
2019-02-05T14:20:55.724Z,9.63
2019-02-05T14:23:26.012Z,8.05
2019-02-05T14:25:59.523Z,9.33
2019-02-05T14:28:28.559Z,7.58
2019-02-05T14:30:59.104Z,6.35
2019-02-05T14:33:31.375Z,6.95
2019-02-05T14:36:01.958Z,6.33
2019-02-05T14:38:33.121Z,6.92
2019-02-05T14:41:03.737Z,5.83
2019-02-05T14:43:34.564Z,6.95
2019-02-05T14:46:05.217Z,6.58
2019-02-05T14:48:36.138Z,5.95
2019-02-05T14:51:06.465Z,5.70
2019-02-05T14:53:36.873Z,5.70
2019-02-05T14:56:07.267Z,8.35
2019-02-05T14:58:37.850Z,8.98
2019-02-05T15:01:08.479Z,6.45
2019-02-05T15:03:39.397Z,5.97
2019-02-05T15:06:09.647Z,7.37
2019-02-05T15:08:40.109Z,7.12
2019-02-05T15:11:10.508Z,6.62
2019-02-05T15:13:41.127Z,8.30
2019-02-05T15:16:11.761Z,6.12
2019-02-05T15:18:45.145Z,6.97
2019-02-05T15:21:15.447Z,9.88
2019-02-05T15:23:46.310Z,10.67
2019-02-05T15:26:16.950Z,10.33
2019-02-05T15:28:47.583Z,11.40
2019-02-05T15:31:17.823Z,12.90
2019-02-05T15:33:53.147Z,13.33
2019-02-05T15:36:44.361Z,13.37
2019-02-05T15:39:15.983Z,13.27
2019-02-05T15:41:46.221Z,13.43
2019-02-05T15:44:16.727Z,13.27
2019-02-05T15:46:47.401Z,13.17
2019-02-05T15:49:17.664Z,13.90
2019-02-05T15:51:48.236Z,13.83
2019-02-05T15:54:18.557Z,13.13
2019-02-05T15:56:49.102Z,14.00
2019-02-05T15:59:19.742Z,14.20
2019-02-05T16:01:51.396Z,12.33
2019-02-05T16:04:21.666Z,12.70
2019-02-05T16:06:51.927Z,13.77
2019-02-05T16:09:22.578Z,12.60
2019-02-05T16:11:53.096Z,13.27
2019-02-05T16:14:25.581Z,13.35
2019-02-05T16:16:56.211Z,14.37
2019-02-05T16:19:26.498Z,13.70
2019-02-05T16:21:56.761Z,14.33
2019-02-05T16:24:27.709Z,14.63
2019-02-05T16:26:58.717Z,14.23
2019-02-05T16:29:29.432Z,14.90
2019-02-05T16:31:59.766Z,14.70
2019-02-05T16:34:30.009Z,15.43
2019-02-05T16:37:00.327Z,15.93
2019-02-05T16:39:31.392Z,16.50
2019-02-05T16:42:02.056Z,15.73
2019-02-05T16:44:32.992Z,15.77
2019-02-05T16:47:03.270Z,15.87
2019-02-05T16:49:33.701Z,16.50
2019-02-05T16:52:04.248Z,16.53
2019-02-05T16:54:35.081Z,16.47
2019-02-05T16:57:05.712Z,14.70
2019-02-05T16:59:36.248Z,16.67
2019-02-05T17:02:09.511Z,17.23
2019-02-05T17:05:03.606Z,16.13
2019-02-05T17:07:34.762Z,18.77
2019-02-05T17:10:07.677Z,18.20
2019-02-05T17:12:38.002Z,16.80
2019-02-05T17:15:12.650Z,16.93
2019-02-05T17:17:44.972Z,17.43
2019-02-05T17:20:18.653Z,17.03
2019-02-05T17:22:49.016Z,17.57
2019-02-05T17:25:20.756Z,79.77
2019-02-05T17:27:52.307Z,19.73
2019-02-05T17:30:35.707Z,18.00
2019-02-05T17:33:07.039Z,16.90
2019-02-05T17:35:37.582Z,17.07
2019-02-05T17:38:09.736Z,18.60
2019-02-05T17:40:40.053Z,16.83
2019-02-05T17:43:10.456Z,18.25
2019-02-05T17:45:41.890Z,18.33
2019-02-05T17:48:17.885Z,17.30
2019-02-05T17:50:48.644Z,17.60
2019-02-05T17:53:19.313Z,18.30
2019-02-05T17:55:50.021Z,17.73
2019-02-05T17:58:20.860Z,18.57
2019-02-05T18:00:54.741Z,18.60
2019-02-05T18:03:25.372Z,18.30
2019-02-05T18:05:55.893Z,18.47
2019-02-05T18:08:27.193Z,17.97
2019-02-05T18:10:57.757Z,19.00
2019-02-05T18:13:28.220Z,18.43
2019-02-05T18:16:01.228Z,17.33
2019-02-05T18:18:32.693Z,17.60
2019-02-05T18:21:03.900Z,18.25
2019-02-05T18:23:38.856Z,18.63
2019-02-05T18:26:10.405Z,17.13
2019-02-05T18:28:43.435Z,18.63
2019-02-05T18:31:13.849Z,19.67
2019-02-05T18:33:46.131Z,18.57
2019-02-05T18:36:18.414Z,17.87
2019-02-05T18:38:49.490Z,18.33
2019-02-05T18:41:22.136Z,18.77
2019-02-05T18:43:54.513Z,18.60
2019-02-05T18:46:26.743Z,19.33
2019-02-05T18:49:04.973Z,19.23
2019-02-05T18:51:34.076Z,17.90
2019-02-05T18:54:05.984Z,19.60
2019-02-05T18:56:39.367Z,20.93
2019-02-05T18:59:11.949Z,19.93
2019-02-05T19:01:44.433Z,18.03
2019-02-05T19:04:18.475Z,18.70
2019-02-05T19:07:10.360Z,20.90
2019-02-05T19:09:43.534Z,20.20
2019-02-05T19:12:16.464Z,20.53
2019-02-05T19:14:49.241Z,19.53
2019-02-05T19:17:21.364Z,16.97
2019-02-05T19:19:54.150Z,19.30
2019-02-05T19:22:25.860Z,19.93
2019-02-05T19:25:06.643Z,19.77
2019-02-05T19:27:40.400Z,20.90
2019-02-05T19:30:34.271Z,19.07
2019-02-05T19:33:06.658Z,19.67
2019-02-05T19:35:39.400Z,20.87
2019-02-05T19:38:13.510Z,20.20
2019-02-05T19:40:56.884Z,22.23
2019-02-05T19:43:23.607Z,22.30
2019-02-05T19:46:13.364Z,23.90
2019-02-05T19:48:54.136Z,20.10
2019-02-05T19:51:26.263Z,21.10
2019-02-05T19:53:58.528Z,19.23
2019-02-05T19:56:37.834Z,19.47
2019-02-05T19:59:05.495Z,20.47
2019-02-05T20:01:37.123Z,20.60
2019-02-05T20:04:07.896Z,20.27
2019-02-05T20:06:40.675Z,21.13
2019-02-05T20:09:16.392Z,22.67
2019-02-05T20:11:48.662Z,22.73
2019-02-05T20:14:20.635Z,21.00
2019-02-05T20:16:53.606Z,21.60
2019-02-05T20:19:27.752Z,19.33
2019-02-05T20:22:01.585Z,19.53
2019-02-05T20:24:34.820Z,21.97
2019-02-05T20:27:07.851Z,20.87
2019-02-05T20:29:40.456Z,20.27
2019-02-05T20:32:13.898Z,20.43
2019-02-05T20:34:46.790Z,20.30
2019-02-05T20:37:19.535Z,21.77
2019-02-05T20:39:51.688Z,20.23
2019-02-05T20:42:24.011Z,20.30
2019-02-05T20:44:57.256Z,20.60
2019-02-05T20:47:32.331Z,19.40
2019-02-05T20:50:05.529Z,18.77
2019-02-05T20:52:38.314Z,20.83
2019-02-05T20:55:12.728Z,20.60
2019-02-05T20:57:44.826Z,20.47
2019-02-05T21:00:21.806Z,19.43
2019-02-05T21:02:52.702Z,21.00
2019-02-05T21:05:23.581Z,20.20
2019-02-05T21:07:54.840Z,20.60
2019-02-05T21:10:26.643Z,20.87
2019-02-05T21:12:57.791Z,21.20
2019-02-05T21:15:29.279Z,21.60
2019-02-05T21:18:21.423Z,21.60
2019-02-05T21:20:52.517Z,20.87
2019-02-05T21:23:22.986Z,21.10
2019-02-05T21:25:53.909Z,20.47
2019-02-05T21:28:25.129Z,20.40
2019-02-05T21:30:56.168Z,21.43
2019-02-05T21:33:27.010Z,20.83
2019-02-05T21:35:57.570Z,22.03
2019-02-05T21:38:27.873Z,19.80
2019-02-05T21:40:58.677Z,20.83
2019-02-05T21:43:28.937Z,21.60
2019-02-05T21:46:01.097Z,19.90
2019-02-05T21:48:31.424Z,20.60
2019-02-05T21:51:02.044Z,21.13
2019-02-05T21:53:32.644Z,20.90
2019-02-05T21:56:03.238Z,19.73
2019-02-05T21:58:33.601Z,20.73
2019-02-05T22:01:05.286Z,20.57
2019-02-05T22:03:35.948Z,21.20
2019-02-05T22:06:06.559Z,20.17
2019-02-05T22:08:37.131Z,20.53
2019-02-05T22:11:07.482Z,20.60
2019-02-05T22:13:38.358Z,20.97
2019-02-05T22:16:08.680Z,20.48
2019-02-05T22:18:39.404Z,21.33
2019-02-05T22:21:10.350Z,21.53
2019-02-05T22:23:41.616Z,21.63
2019-02-05T22:26:12.881Z,20.87
2019-02-05T22:28:43.466Z,20.70
2019-02-05T22:31:14.139Z,20.30
2019-02-05T22:33:45.157Z,21.10
2019-02-05T22:36:15.728Z,20.15
2019-02-05T22:38:46.638Z,21.37
2019-02-05T22:41:17.862Z,21.27
2019-02-05T22:43:48.169Z,21.17
2019-02-05T22:46:18.349Z,21.80
2019-02-05T22:48:48.938Z,21.97
2019-02-05T22:51:19.265Z,21.70
2019-02-05T22:53:49.579Z,20.97
2019-02-05T22:56:20.939Z,20.53
2019-02-05T22:58:51.549Z,21.85
2019-02-05T23:01:34.898Z,21.30
2019-02-05T23:04:32.815Z,22.53
2019-02-05T23:07:12.866Z,21.77
2019-02-05T23:10:25.971Z,21.93
2019-02-05T23:13:02.415Z,22.67
2019-02-05T23:15:33.069Z,22.23
2019-02-05T23:18:04.199Z,21.40
2019-02-05T23:20:34.687Z,22.25
2019-02-05T23:23:05.195Z,22.53
2019-02-05T23:25:35.422Z,20.43
2019-02-05T23:28:05.886Z,22.40
2019-02-05T23:30:37.178Z,20.87
2019-02-05T23:33:07.758Z,21.27
2019-02-05T23:35:38.378Z,20.20
2019-02-05T23:38:08.944Z,21.33
2019-02-05T23:40:39.804Z,22.03
2019-02-05T23:43:10.508Z,21.40
2019-02-05T23:45:40.776Z,21.23
2019-02-05T23:48:11.546Z,22.57
2019-02-05T23:50:42.168Z,20.40
2019-02-05T23:53:12.659Z,22.17
2019-02-05T23:55:43.227Z,21.83
2019-02-05T23:58:14.102Z,22.17
